sensor_id;sensor_type;location;lat;lon;timestamp;temperature;humidity
5806;DHT22;2929;50.810;8.342;2022-12-04T00:01:12;-0.30;99.90
5806;DHT22;2929;50.810;8.342;2022-12-04T00:03:40;-0.30;99.90
5806;DHT22;2929;50.810;8.342;2022-12-04T00:06:09;-0.30;99.90
5806;DHT22;2929;50.810;8.342;2022-12-04T00:08:37;-0.30;99.90
5806;DHT22;2929;50.810;8.342;2022-12-04T00:11:07;-0.30;99.90
5806;DHT22;2929;50.810;8.342;2022-12-04T00:13:35;-0.30;99.90
5806;DHT22;2929;50.810;8.342;2022-12-04T00:16:03;-0.30;99.90
5806;DHT22;2929;50.810;8.342;2022-12-04T00:18:31;-0.30;99.90
5806;DHT22;2929;50.810;8.342;2022-12-04T00:20:58;-0.40;99.90
5806;DHT22;2929;50.810;8.342;2022-12-04T00:23:25;-0.30;99.90
5806;DHT22;2929;50.810;8.342;2022-12-04T00:25:59;-0.30;99.90
5806;DHT22;2929;50.810;8.342;2022-12-04T00:28:27;-0.30;99.90
5806;DHT22;2929;50.810;8.342;2022-12-04T00:30:55;-0.30;99.90
5806;DHT22;2929;50.810;8.342;2022-12-04T00:33:22;-0.30;99.90
5806;DHT22;2929;50.810;8.342;2022-12-04T00:35:56;-0.30;99.90
5806;DHT22;2929;50.810;8.342;2022-12-04T00:38:23;-0.40;99.90
5806;DHT22;2929;50.810;8.342;2022-12-04T00:40:50;-0.40;99.90
5806;DHT22;2929;50.810;8.342;2022-12-04T00:43:18;-0.40;99.90
5806;DHT22;2929;50.810;8.342;2022-12-04T00:45:48;-0.50;99.90
5806;DHT22;2929;50.810;8.342;2022-12-04T00:48:16;-0.50;99.90
5806;DHT22;2929;50.810;8.342;2022-12-04T00:50:43;-0.50;99.90
5806;DHT22;2929;50.810;8.342;2022-12-04T00:53:10;-0.50;99.90
5806;DHT22;2929;50.810;8.342;2022-12-04T00:55:37;-0.50;99.90
5806;DHT22;2929;50.810;8.342;2022-12-04T00:58:04;-0.50;99.90
5806;DHT22;2929;50.810;8.342;2022-12-04T01:00:35;-0.50;99.90
5806;DHT22;2929;50.810;8.342;2022-12-04T01:03:04;-0.50;99.90
5806;DHT22;2929;50.810;8.342;2022-12-04T01:05:31;-0.60;99.90
5806;DHT22;2929;50.810;8.342;2022-12-04T01:07:58;-0.50;99.90
5806;DHT22;2929;50.810;8.342;2022-12-04T01:10:25;-0.60;99.90
5806;DHT22;2929;50.810;8.342;2022-12-04T01:12:52;-0.60;99.90
5806;DHT22;2929;50.810;8.342;2022-12-04T01:15:19;-0.70;99.90
5806;DHT22;2929;50.810;8.342;2022-12-04T01:17:46;-0.70;99.90
5806;DHT22;2929;50.810;8.342;2022-12-04T01:20:15;-0.70;99.90
5806;DHT22;2929;50.810;8.342;2022-12-04T01:22:42;-0.70;99.90
5806;DHT22;2929;50.810;8.342;2022-12-04T01:25:10;-0.80;99.90
5806;DHT22;2929;50.810;8.342;2022-12-04T01:27:37;-0.70;99.90
5806;DHT22;2929;50.810;8.342;2022-12-04T01:30:06;-0.70;99.90
5806;DHT22;2929;50.810;8.342;2022-12-04T01:32:33;-0.80;99.90
5806;DHT22;2929;50.810;8.342;2022-12-04T01:35:00;-0.80;99.90
5806;DHT22;2929;50.810;8.342;2022-12-04T01:37:30;-0.70;99.90
5806;DHT22;2929;50.810;8.342;2022-12-04T01:39:58;-0.80;99.90
5806;DHT22;2929;50.810;8.342;2022-12-04T01:42:25;-0.70;99.90
5806;DHT22;2929;50.810;8.342;2022-12-04T01:48:10;-0.80;99.90
5806;DHT22;2929;50.810;8.342;2022-12-04T01:50:40;-0.70;99.90
5806;DHT22;2929;50.810;8.342;2022-12-04T01:53:09;-0.80;99.90
5806;DHT22;2929;50.810;8.342;2022-12-04T01:55:37;-0.80;99.90
5806;DHT22;2929;50.810;8.342;2022-12-04T01:58:06;-0.80;99.90
5806;DHT22;2929;50.810;8.342;2022-12-04T02:00:34;-0.80;99.90
5806;DHT22;2929;50.810;8.342;2022-12-04T02:03:01;-0.80;99.90
5806;DHT22;2929;50.810;8.342;2022-12-04T02:05:28;-0.80;99.90
5806;DHT22;2929;50.810;8.342;2022-12-04T02:07:57;-0.70;99.90
5806;DHT22;2929;50.810;8.342;2022-12-04T02:10:33;-0.70;99.90
5806;DHT22;2929;50.810;8.342;2022-12-04T02:13:07;-0.70;99.90
5806;DHT22;2929;50.810;8.342;2022-12-04T02:15:44;-0.70;99.90
5806;DHT22;2929;50.810;8.342;2022-12-04T02:18:19;-0.70;99.90
5806;DHT22;2929;50.810;8.342;2022-12-04T02:20:58;-0.80;99.90
5806;DHT22;2929;50.810;8.342;2022-12-04T02:23:56;-0.70;99.90
5806;DHT22;2929;50.810;8.342;2022-12-04T02:26:38;-0.70;99.90
5806;DHT22;2929;50.810;8.342;2022-12-04T02:29:11;-0.70;99.90
5806;DHT22;2929;50.810;8.342;2022-12-04T02:31:45;-0.80;99.90
5806;DHT22;2929;50.810;8.342;2022-12-04T02:34:19;-0.80;99.90
5806;DHT22;2929;50.810;8.342;2022-12-04T02:36:51;-0.80;99.90
5806;DHT22;2929;50.810;8.342;2022-12-04T02:39:24;-0.80;99.90
5806;DHT22;2929;50.810;8.342;2022-12-04T02:41:56;-0.80;99.90
5806;DHT22;2929;50.810;8.342;2022-12-04T02:44:28;-0.80;99.90
5806;DHT22;2929;50.810;8.342;2022-12-04T02:47:00;-0.80;99.90
5806;DHT22;2929;50.810;8.342;2022-12-04T02:49:31;-0.80;99.90
5806;DHT22;2929;50.810;8.342;2022-12-04T02:51:59;-0.90;99.90
5806;DHT22;2929;50.810;8.342;2022-12-04T02:54:33;-0.90;99.90
5806;DHT22;2929;50.810;8.342;2022-12-04T02:57:04;-0.80;99.90
5806;DHT22;2929;50.810;8.342;2022-12-04T02:59:37;-0.90;99.90
5806;DHT22;2929;50.810;8.342;2022-12-04T03:02:10;-0.90;99.90
5806;DHT22;2929;50.810;8.342;2022-12-04T03:04:40;-0.90;99.90
5806;DHT22;2929;50.810;8.342;2022-12-04T03:07:11;-0.90;99.90
5806;DHT22;2929;50.810;8.342;2022-12-04T03:09:43;-0.90;99.90
5806;DHT22;2929;50.810;8.342;2022-12-04T03:12:14;-0.80;99.90
5806;DHT22;2929;50.810;8.342;2022-12-04T03:14:46;-0.80;99.90
5806;DHT22;2929;50.810;8.342;2022-12-04T03:17:18;-0.80;99.90
5806;DHT22;2929;50.810;8.342;2022-12-04T03:19:52;-0.90;99.90
5806;DHT22;2929;50.810;8.342;2022-12-04T03:22:21;-0.80;99.90
5806;DHT22;2929;50.810;8.342;2022-12-04T03:24:51;-0.80;99.90
5806;DHT22;2929;50.810;8.342;2022-12-04T03:27:23;-0.70;99.90
5806;DHT22;2929;50.810;8.342;2022-12-04T03:29:56;-0.80;99.90
5806;DHT22;2929;50.810;8.342;2022-12-04T03:32:29;-0.80;99.90
5806;DHT22;2929;50.810;8.342;2022-12-04T03:35:00;-0.80;99.90
5806;DHT22;2929;50.810;8.342;2022-12-04T03:37:33;-0.80;99.90
5806;DHT22;2929;50.810;8.342;2022-12-04T03:40:06;-0.80;99.90
5806;DHT22;2929;50.810;8.342;2022-12-04T03:42:41;-0.80;99.90
5806;DHT22;2929;50.810;8.342;2022-12-04T03:45:19;-0.80;99.90
5806;DHT22;2929;50.810;8.342;2022-12-04T03:47:54;-0.80;99.90
5806;DHT22;2929;50.810;8.342;2022-12-04T03:50:30;-0.70;99.90
5806;DHT22;2929;50.810;8.342;2022-12-04T03:53:03;-0.70;99.90
5806;DHT22;2929;50.810;8.342;2022-12-04T03:55:38;-0.70;99.90
5806;DHT22;2929;50.810;8.342;2022-12-04T03:58:11;-0.70;99.90
5806;DHT22;2929;50.810;8.342;2022-12-04T04:00:42;-0.80;99.90
5806;DHT22;2929;50.810;8.342;2022-12-04T04:03:13;-0.80;99.90
5806;DHT22;2929;50.810;8.342;2022-12-04T04:05:43;-0.80;99.90
5806;DHT22;2929;50.810;8.342;2022-12-04T04:08:15;-0.80;99.90
5806;DHT22;2929;50.810;8.342;2022-12-04T04:10:54;-0.80;99.90
5806;DHT22;2929;50.810;8.342;2022-12-04T04:13:27;-0.70;99.90
5806;DHT22;2929;50.810;8.342;2022-12-04T04:16:17;-0.80;99.90
5806;DHT22;2929;50.810;8.342;2022-12-04T04:19:02;-0.80;99.90
5806;DHT22;2929;50.810;8.342;2022-12-04T04:21:48;-0.80;99.90
5806;DHT22;2929;50.810;8.342;2022-12-04T04:24:39;-0.80;99.90
5806;DHT22;2929;50.810;8.342;2022-12-04T04:27:08;-0.80;99.90
5806;DHT22;2929;50.810;8.342;2022-12-04T04:29:35;-0.80;99.90
5806;DHT22;2929;50.810;8.342;2022-12-04T04:32:10;-0.80;99.90
5806;DHT22;2929;50.810;8.342;2022-12-04T04:34:44;-0.80;99.90
5806;DHT22;2929;50.810;8.342;2022-12-04T04:37:21;-0.70;99.90
5806;DHT22;2929;50.810;8.342;2022-12-04T04:39:56;-0.70;99.90
5806;DHT22;2929;50.810;8.342;2022-12-04T04:42:27;-0.70;99.90
5806;DHT22;2929;50.810;8.342;2022-12-04T04:45:00;-0.70;99.90
5806;DHT22;2929;50.810;8.342;2022-12-04T04:47:35;-0.70;99.90
5806;DHT22;2929;50.810;8.342;2022-12-04T04:50:08;-0.70;99.90
5806;DHT22;2929;50.810;8.342;2022-12-04T04:52:39;-0.70;99.90
5806;DHT22;2929;50.810;8.342;2022-12-04T04:55:08;-0.70;99.90
5806;DHT22;2929;50.810;8.342;2022-12-04T04:57:35;-0.70;99.90
5806;DHT22;2929;50.810;8.342;2022-12-04T05:00:04;-0.60;99.90
5806;DHT22;2929;50.810;8.342;2022-12-04T05:02:33;-0.70;99.90
5806;DHT22;2929;50.810;8.342;2022-12-04T05:05:00;-0.70;99.90
5806;DHT22;2929;50.810;8.342;2022-12-04T05:07:28;-0.70;99.90
5806;DHT22;2929;50.810;8.342;2022-12-04T05:09:55;-0.70;99.90
5806;DHT22;2929;50.810;8.342;2022-12-04T05:12:22;-0.70;99.90
5806;DHT22;2929;50.810;8.342;2022-12-04T05:14:49;-0.70;99.90
5806;DHT22;2929;50.810;8.342;2022-12-04T05:17:16;-0.60;99.90
5806;DHT22;2929;50.810;8.342;2022-12-04T05:19:44;-0.70;99.90
5806;DHT22;2929;50.810;8.342;2022-12-04T05:22:23;-0.70;99.90
5806;DHT22;2929;50.810;8.342;2022-12-04T05:24:51;-0.70;99.90
5806;DHT22;2929;50.810;8.342;2022-12-04T05:27:19;-0.70;99.90
5806;DHT22;2929;50.810;8.342;2022-12-04T05:29:51;-0.70;99.90
5806;DHT22;2929;50.810;8.342;2022-12-04T05:32:19;-0.70;99.90
5806;DHT22;2929;50.810;8.342;2022-12-04T05:34:47;-0.70;99.90
5806;DHT22;2929;50.810;8.342;2022-12-04T05:37:15;-0.70;99.90
5806;DHT22;2929;50.810;8.342;2022-12-04T05:39:42;-0.70;99.90
5806;DHT22;2929;50.810;8.342;2022-12-04T05:42:09;-0.60;99.90
5806;DHT22;2929;50.810;8.342;2022-12-04T05:44:36;-0.60;99.90
5806;DHT22;2929;50.810;8.342;2022-12-04T05:47:04;-0.60;99.90
5806;DHT22;2929;50.810;8.342;2022-12-04T05:49:31;-0.60;99.90
5806;DHT22;2929;50.810;8.342;2022-12-04T05:52:01;-0.60;99.90
5806;DHT22;2929;50.810;8.342;2022-12-04T05:54:28;-0.60;99.90
5806;DHT22;2929;50.810;8.342;2022-12-04T05:56:56;-0.60;99.90
5806;DHT22;2929;50.810;8.342;2022-12-04T05:59:23;-0.60;99.90
5806;DHT22;2929;50.810;8.342;2022-12-04T06:01:51;-0.60;99.90
5806;DHT22;2929;50.810;8.342;2022-12-04T06:04:18;-0.60;99.90
5806;DHT22;2929;50.810;8.342;2022-12-04T06:06:45;-0.50;99.90
5806;DHT22;2929;50.810;8.342;2022-12-04T06:09:14;-0.60;99.90
5806;DHT22;2929;50.810;8.342;2022-12-04T06:11:41;-0.50;99.90
5806;DHT22;2929;50.810;8.342;2022-12-04T06:14:12;-0.50;99.90
5806;DHT22;2929;50.810;8.342;2022-12-04T06:16:41;-0.50;99.90
5806;DHT22;2929;50.810;8.342;2022-12-04T06:19:12;-0.50;99.90
5806;DHT22;2929;50.810;8.342;2022-12-04T06:21:41;-0.50;99.90
5806;DHT22;2929;50.810;8.342;2022-12-04T06:24:12;-0.50;99.90
5806;DHT22;2929;50.810;8.342;2022-12-04T06:26:41;-0.50;99.90
5806;DHT22;2929;50.810;8.342;2022-12-04T06:29:10;-0.50;99.90
5806;DHT22;2929;50.810;8.342;2022-12-04T06:31:38;-0.50;99.90
5806;DHT22;2929;50.810;8.342;2022-12-04T06:34:06;-0.50;99.90
5806;DHT22;2929;50.810;8.342;2022-12-04T06:36:35;-0.50;99.90
5806;DHT22;2929;50.810;8.342;2022-12-04T06:39:02;-0.40;99.90
5806;DHT22;2929;50.810;8.342;2022-12-04T06:41:29;-0.40;99.90
5806;DHT22;2929;50.810;8.342;2022-12-04T06:43:58;-0.40;99.90
5806;DHT22;2929;50.810;8.342;2022-12-04T06:46:27;-0.50;99.90
5806;DHT22;2929;50.810;8.342;2022-12-04T06:48:56;-0.50;99.90
5806;DHT22;2929;50.810;8.342;2022-12-04T06:51:25;-0.50;99.90
5806;DHT22;2929;50.810;8.342;2022-12-04T06:53:52;-0.50;99.90
5806;DHT22;2929;50.810;8.342;2022-12-04T06:56:22;-0.50;99.90
5806;DHT22;2929;50.810;8.342;2022-12-04T06:58:51;-0.50;99.90
5806;DHT22;2929;50.810;8.342;2022-12-04T07:01:22;-0.50;99.90
5806;DHT22;2929;50.810;8.342;2022-12-04T07:03:49;-0.50;99.90
5806;DHT22;2929;50.810;8.342;2022-12-04T07:06:20;-0.50;99.90
5806;DHT22;2929;50.810;8.342;2022-12-04T07:08:50;-0.50;99.90
5806;DHT22;2929;50.810;8.342;2022-12-04T07:11:18;-0.50;99.90
5806;DHT22;2929;50.810;8.342;2022-12-04T07:13:46;-0.40;99.90
5806;DHT22;2929;50.810;8.342;2022-12-04T07:16:15;-0.40;99.90
5806;DHT22;2929;50.810;8.342;2022-12-04T07:18:44;-0.40;99.90
5806;DHT22;2929;50.810;8.342;2022-12-04T07:21:14;-0.40;99.90
5806;DHT22;2929;50.810;8.342;2022-12-04T07:23:41;-0.40;99.90
5806;DHT22;2929;50.810;8.342;2022-12-04T07:26:11;-0.40;99.90
5806;DHT22;2929;50.810;8.342;2022-12-04T07:28:39;-0.40;99.90
5806;DHT22;2929;50.810;8.342;2022-12-04T07:31:07;-0.40;99.90
5806;DHT22;2929;50.810;8.342;2022-12-04T07:33:36;-0.40;99.90
5806;DHT22;2929;50.810;8.342;2022-12-04T07:36:07;-0.40;99.90
5806;DHT22;2929;50.810;8.342;2022-12-04T07:38:34;-0.40;99.90
5806;DHT22;2929;50.810;8.342;2022-12-04T07:41:05;-0.30;99.90
5806;DHT22;2929;50.810;8.342;2022-12-04T07:43:33;-0.30;99.90
5806;DHT22;2929;50.810;8.342;2022-12-04T07:46:04;-0.30;99.90
5806;DHT22;2929;50.810;8.342;2022-12-04T07:48:32;-0.30;99.90
5806;DHT22;2929;50.810;8.342;2022-12-04T07:51:05;-0.30;99.90
5806;DHT22;2929;50.810;8.342;2022-12-04T07:53:33;-0.30;99.90
5806;DHT22;2929;50.810;8.342;2022-12-04T07:56:00;-0.30;99.90
5806;DHT22;2929;50.810;8.342;2022-12-04T07:58:27;-0.30;99.90
5806;DHT22;2929;50.810;8.342;2022-12-04T08:00:54;-0.30;99.90
5806;DHT22;2929;50.810;8.342;2022-12-04T08:03:30;-0.30;99.90
5806;DHT22;2929;50.810;8.342;2022-12-04T08:05:58;-0.20;99.90
5806;DHT22;2929;50.810;8.342;2022-12-04T08:08:27;-0.20;99.90
5806;DHT22;2929;50.810;8.342;2022-12-04T08:10:55;-0.20;99.90
5806;DHT22;2929;50.810;8.342;2022-12-04T08:13:22;-0.20;99.90
5806;DHT22;2929;50.810;8.342;2022-12-04T08:15:49;-0.20;99.90
5806;DHT22;2929;50.810;8.342;2022-12-04T08:18:17;-0.20;99.90
5806;DHT22;2929;50.810;8.342;2022-12-04T08:20:44;-0.20;99.90
5806;DHT22;2929;50.810;8.342;2022-12-04T08:23:11;-0.20;99.90
5806;DHT22;2929;50.810;8.342;2022-12-04T08:25:40;-0.20;99.90
5806;DHT22;2929;50.810;8.342;2022-12-04T08:28:07;-0.20;99.90
5806;DHT22;2929;50.810;8.342;2022-12-04T08:30:35;-0.20;99.90
5806;DHT22;2929;50.810;8.342;2022-12-04T08:33:02;-0.20;99.90
5806;DHT22;2929;50.810;8.342;2022-12-04T08:35:33;-0.10;99.90
5806;DHT22;2929;50.810;8.342;2022-12-04T08:38:00;-0.20;99.90
5806;DHT22;2929;50.810;8.342;2022-12-04T08:40:28;-0.10;99.90
5806;DHT22;2929;50.810;8.342;2022-12-04T08:42:56;-0.20;99.90
5806;DHT22;2929;50.810;8.342;2022-12-04T08:45:23;-0.20;99.90
5806;DHT22;2929;50.810;8.342;2022-12-04T08:47:51;-0.10;99.90
5806;DHT22;2929;50.810;8.342;2022-12-04T08:50:18;-0.10;99.90
5806;DHT22;2929;50.810;8.342;2022-12-04T08:52:45;-0.10;99.90
5806;DHT22;2929;50.810;8.342;2022-12-04T08:55:12;-0.10;99.90
5806;DHT22;2929;50.810;8.342;2022-12-04T08:57:39;0.00;99.90
5806;DHT22;2929;50.810;8.342;2022-12-04T09:00:08;0.00;99.90
5806;DHT22;2929;50.810;8.342;2022-12-04T09:02:36;0.00;99.90
5806;DHT22;2929;50.810;8.342;2022-12-04T09:05:03;0.00;99.90
5806;DHT22;2929;50.810;8.342;2022-12-04T09:07:30;0.00;99.90
5806;DHT22;2929;50.810;8.342;2022-12-04T09:09:57;0.00;99.90
5806;DHT22;2929;50.810;8.342;2022-12-04T09:12:24;0.00;99.90
5806;DHT22;2929;50.810;8.342;2022-12-04T09:14:51;0.00;99.90
5806;DHT22;2929;50.810;8.342;2022-12-04T09:17:24;0.10;99.90
5806;DHT22;2929;50.810;8.342;2022-12-04T09:19:51;0.10;99.90
5806;DHT22;2929;50.810;8.342;2022-12-04T09:22:18;0.10;99.90
5806;DHT22;2929;50.810;8.342;2022-12-04T09:24:49;0.10;99.90
5806;DHT22;2929;50.810;8.342;2022-12-04T09:27:16;0.10;99.90
5806;DHT22;2929;50.810;8.342;2022-12-04T09:29:43;0.20;99.90
5806;DHT22;2929;50.810;8.342;2022-12-04T09:32:10;0.10;99.90
5806;DHT22;2929;50.810;8.342;2022-12-04T09:34:38;0.10;99.90
5806;DHT22;2929;50.810;8.342;2022-12-04T09:37:05;0.10;99.90
5806;DHT22;2929;50.810;8.342;2022-12-04T09:39:32;0.20;99.90
5806;DHT22;2929;50.810;8.342;2022-12-04T09:42:18;0.20;99.90
5806;DHT22;2929;50.810;8.342;2022-12-04T09:44:52;0.20;99.90
5806;DHT22;2929;50.810;8.342;2022-12-04T09:47:26;0.20;99.90
5806;DHT22;2929;50.810;8.342;2022-12-04T09:49:59;0.20;99.90
5806;DHT22;2929;50.810;8.342;2022-12-04T09:52:37;0.20;99.90
5806;DHT22;2929;50.810;8.342;2022-12-04T09:55:11;0.20;99.90
5806;DHT22;2929;50.810;8.342;2022-12-04T09:57:42;0.30;99.90
5806;DHT22;2929;50.810;8.342;2022-12-04T10:00:12;0.30;99.90
5806;DHT22;2929;50.810;8.342;2022-12-04T10:02:41;0.20;99.90
5806;DHT22;2929;50.810;8.342;2022-12-04T10:05:16;0.20;99.90
5806;DHT22;2929;50.810;8.342;2022-12-04T10:07:52;0.20;99.90
5806;DHT22;2929;50.810;8.342;2022-12-04T10:10:29;0.20;99.90
5806;DHT22;2929;50.810;8.342;2022-12-04T10:13:11;0.20;99.90
5806;DHT22;2929;50.810;8.342;2022-12-04T10:15:44;0.20;99.90
5806;DHT22;2929;50.810;8.342;2022-12-04T10:18:24;0.20;99.90
5806;DHT22;2929;50.810;8.342;2022-12-04T10:21:21;0.30;99.90
5806;DHT22;2929;50.810;8.342;2022-12-04T10:23:59;0.30;99.90
5806;DHT22;2929;50.810;8.342;2022-12-04T10:26:33;0.30;99.90
5806;DHT22;2929;50.810;8.342;2022-12-04T10:29:06;0.30;99.90
5806;DHT22;2929;50.810;8.342;2022-12-04T10:31:35;0.20;99.90
5806;DHT22;2929;50.810;8.342;2022-12-04T10:34:06;0.20;99.90
5806;DHT22;2929;50.810;8.342;2022-12-04T10:36:40;0.30;99.90
5806;DHT22;2929;50.810;8.342;2022-12-04T10:39:15;0.30;99.90
5806;DHT22;2929;50.810;8.342;2022-12-04T10:41:50;0.30;99.90
5806;DHT22;2929;50.810;8.342;2022-12-04T10:44:19;0.40;99.90
5806;DHT22;2929;50.810;8.342;2022-12-04T10:46:46;0.40;99.90
5806;DHT22;2929;50.810;8.342;2022-12-04T10:49:17;0.40;99.90
5806;DHT22;2929;50.810;8.342;2022-12-04T10:51:47;0.40;99.90
5806;DHT22;2929;50.810;8.342;2022-12-04T10:54:18;0.30;99.90
5806;DHT22;2929;50.810;8.342;2022-12-04T10:56:53;0.30;99.90
5806;DHT22;2929;50.810;8.342;2022-12-04T10:59:21;0.40;99.90
5806;DHT22;2929;50.810;8.342;2022-12-04T11:01:48;0.40;99.90
5806;DHT22;2929;50.810;8.342;2022-12-04T11:04:21;0.40;99.90
5806;DHT22;2929;50.810;8.342;2022-12-04T11:07:00;0.40;99.90
5806;DHT22;2929;50.810;8.342;2022-12-04T11:09:28;0.40;99.90
5806;DHT22;2929;50.810;8.342;2022-12-04T11:12:05;0.40;99.90
5806;DHT22;2929;50.810;8.342;2022-12-04T11:14:33;0.40;99.90
5806;DHT22;2929;50.810;8.342;2022-12-04T11:17:02;0.40;99.90
5806;DHT22;2929;50.810;8.342;2022-12-04T11:19:32;0.40;99.90
5806;DHT22;2929;50.810;8.342;2022-12-04T11:22:09;0.50;99.90
5806;DHT22;2929;50.810;8.342;2022-12-04T11:24:39;0.50;99.90
5806;DHT22;2929;50.810;8.342;2022-12-04T11:27:16;0.50;99.90
5806;DHT22;2929;50.810;8.342;2022-12-04T11:29:45;0.50;99.90
5806;DHT22;2929;50.810;8.342;2022-12-04T11:32:20;0.50;99.90
5806;DHT22;2929;50.810;8.342;2022-12-04T11:34:49;0.60;99.90
5806;DHT22;2929;50.810;8.342;2022-12-04T11:37:21;0.50;99.90
5806;DHT22;2929;50.810;8.342;2022-12-04T11:39:51;0.50;99.90
5806;DHT22;2929;50.810;8.342;2022-12-04T11:42:23;0.50;99.90
5806;DHT22;2929;50.810;8.342;2022-12-04T11:44:53;0.60;99.90
5806;DHT22;2929;50.810;8.342;2022-12-04T11:47:22;0.60;99.90
5806;DHT22;2929;50.810;8.342;2022-12-04T11:50:04;0.60;99.90
5806;DHT22;2929;50.810;8.342;2022-12-04T11:52:58;0.60;99.90
5806;DHT22;2929;50.810;8.342;2022-12-04T11:55:38;0.60;99.90
5806;DHT22;2929;50.810;8.342;2022-12-04T11:58:24;0.70;99.90
5806;DHT22;2929;50.810;8.342;2022-12-04T12:01:01;0.60;99.90
5806;DHT22;2929;50.810;8.342;2022-12-04T12:03:39;0.60;99.90
5806;DHT22;2929;50.810;8.342;2022-12-04T12:06:29;0.60;99.90
5806;DHT22;2929;50.810;8.342;2022-12-04T12:09:17;0.60;99.90
5806;DHT22;2929;50.810;8.342;2022-12-04T12:11:51;0.60;99.90
5806;DHT22;2929;50.810;8.342;2022-12-04T12:14:24;0.60;99.90
5806;DHT22;2929;50.810;8.342;2022-12-04T12:17:01;0.60;99.90
5806;DHT22;2929;50.810;8.342;2022-12-04T12:19:51;0.70;99.90
5806;DHT22;2929;50.810;8.342;2022-12-04T12:22:33;0.70;99.90
5806;DHT22;2929;50.810;8.342;2022-12-04T12:25:12;0.70;99.90
5806;DHT22;2929;50.810;8.342;2022-12-04T12:27:53;0.70;99.90
5806;DHT22;2929;50.810;8.342;2022-12-04T12:30:23;0.70;99.90
5806;DHT22;2929;50.810;8.342;2022-12-04T12:32:59;0.70;99.90
5806;DHT22;2929;50.810;8.342;2022-12-04T12:35:35;0.70;99.90
5806;DHT22;2929;50.810;8.342;2022-12-04T12:38:06;0.70;99.90
5806;DHT22;2929;50.810;8.342;2022-12-04T12:40:41;0.70;99.90
5806;DHT22;2929;50.810;8.342;2022-12-04T12:43:12;0.80;99.90
5806;DHT22;2929;50.810;8.342;2022-12-04T12:45:44;0.80;99.90
5806;DHT22;2929;50.810;8.342;2022-12-04T12:48:25;0.90;99.90
5806;DHT22;2929;50.810;8.342;2022-12-04T12:50:56;0.80;99.90
5806;DHT22;2929;50.810;8.342;2022-12-04T12:53:28;0.80;99.90
5806;DHT22;2929;50.810;8.342;2022-12-04T12:56:02;0.90;99.90
5806;DHT22;2929;50.810;8.342;2022-12-04T12:58:35;0.90;99.90
5806;DHT22;2929;50.810;8.342;2022-12-04T13:01:07;0.90;99.90
5806;DHT22;2929;50.810;8.342;2022-12-04T13:03:41;1.00;99.90
5806;DHT22;2929;50.810;8.342;2022-12-04T13:06:13;1.00;99.90
5806;DHT22;2929;50.810;8.342;2022-12-04T13:08:46;1.00;99.90
5806;DHT22;2929;50.810;8.342;2022-12-04T13:11:19;1.00;99.90
5806;DHT22;2929;50.810;8.342;2022-12-04T13:13:48;1.00;99.90
5806;DHT22;2929;50.810;8.342;2022-12-04T13:16:20;1.00;99.90
5806;DHT22;2929;50.810;8.342;2022-12-04T13:18:52;1.00;99.90
5806;DHT22;2929;50.810;8.342;2022-12-04T13:21:29;1.00;99.90
5806;DHT22;2929;50.810;8.342;2022-12-04T13:24:28;0.90;99.90
5806;DHT22;2929;50.810;8.342;2022-12-04T13:27:04;0.90;99.90
5806;DHT22;2929;50.810;8.342;2022-12-04T13:29:48;0.90;99.90
5806;DHT22;2929;50.810;8.342;2022-12-04T13:32:36;0.90;99.90
5806;DHT22;2929;50.810;8.342;2022-12-04T13:35:12;0.90;99.90
5806;DHT22;2929;50.810;8.342;2022-12-04T13:38:00;1.00;99.90
5806;DHT22;2929;50.810;8.342;2022-12-04T13:40:36;0.90;99.90
5806;DHT22;2929;50.810;8.342;2022-12-04T13:46:01;1.00;99.90
5806;DHT22;2929;50.810;8.342;2022-12-04T13:48:36;1.00;99.90
5806;DHT22;2929;50.810;8.342;2022-12-04T13:51:22;1.00;99.90
5806;DHT22;2929;50.810;8.342;2022-12-04T13:54:02;1.00;99.90
5806;DHT22;2929;50.810;8.342;2022-12-04T13:56:30;1.00;99.90
5806;DHT22;2929;50.810;8.342;2022-12-04T13:58:59;1.00;99.90
5806;DHT22;2929;50.810;8.342;2022-12-04T14:01:35;1.00;99.90
5806;DHT22;2929;50.810;8.342;2022-12-04T14:04:03;0.90;99.90
5806;DHT22;2929;50.810;8.342;2022-12-04T14:06:34;1.00;99.90
5806;DHT22;2929;50.810;8.342;2022-12-04T14:09:04;0.90;99.90
5806;DHT22;2929;50.810;8.342;2022-12-04T14:11:42;0.90;99.90
5806;DHT22;2929;50.810;8.342;2022-12-04T14:14:24;0.90;99.90
5806;DHT22;2929;50.810;8.342;2022-12-04T14:16:54;0.90;99.90
5806;DHT22;2929;50.810;8.342;2022-12-04T14:19:28;0.90;99.90
5806;DHT22;2929;50.810;8.342;2022-12-04T14:21:57;1.00;99.90
5806;DHT22;2929;50.810;8.342;2022-12-04T14:24:33;1.00;99.90
5806;DHT22;2929;50.810;8.342;2022-12-04T14:27:02;1.00;99.90
5806;DHT22;2929;50.810;8.342;2022-12-04T14:29:47;0.90;99.90
5806;DHT22;2929;50.810;8.342;2022-12-04T14:32:22;1.00;99.90
5806;DHT22;2929;50.810;8.342;2022-12-04T14:34:49;1.00;99.90
5806;DHT22;2929;50.810;8.342;2022-12-04T14:37:25;0.90;99.90
5806;DHT22;2929;50.810;8.342;2022-12-04T14:39:55;1.00;99.90
5806;DHT22;2929;50.810;8.342;2022-12-04T14:42:25;1.00;99.90
5806;DHT22;2929;50.810;8.342;2022-12-04T14:44:55;0.90;99.90
5806;DHT22;2929;50.810;8.342;2022-12-04T14:47:37;1.00;99.90
5806;DHT22;2929;50.810;8.342;2022-12-04T14:50:29;1.00;99.90
5806;DHT22;2929;50.810;8.342;2022-12-04T14:53:08;1.00;99.90
5806;DHT22;2929;50.810;8.342;2022-12-04T14:55:47;1.00;99.90
5806;DHT22;2929;50.810;8.342;2022-12-04T14:58:18;1.00;99.90
5806;DHT22;2929;50.810;8.342;2022-12-04T15:01:01;1.00;99.90
5806;DHT22;2929;50.810;8.342;2022-12-04T15:03:34;1.00;99.90
5806;DHT22;2929;50.810;8.342;2022-12-04T15:06:04;1.00;99.90
5806;DHT22;2929;50.810;8.342;2022-12-04T15:08:31;1.00;99.90
5806;DHT22;2929;50.810;8.342;2022-12-04T15:10:59;1.00;99.90
5806;DHT22;2929;50.810;8.342;2022-12-04T15:13:44;1.00;99.90
5806;DHT22;2929;50.810;8.342;2022-12-04T15:16:15;1.00;99.90
5806;DHT22;2929;50.810;8.342;2022-12-04T15:18:55;1.00;99.90
5806;DHT22;2929;50.810;8.342;2022-12-04T15:21:23;1.00;99.90
5806;DHT22;2929;50.810;8.342;2022-12-04T15:23:52;1.00;99.90
5806;DHT22;2929;50.810;8.342;2022-12-04T15:26:23;1.00;99.90
5806;DHT22;2929;50.810;8.342;2022-12-04T15:28:54;1.00;99.90
5806;DHT22;2929;50.810;8.342;2022-12-04T15:31:25;1.00;99.90
5806;DHT22;2929;50.810;8.342;2022-12-04T15:33:56;1.00;99.90
5806;DHT22;2929;50.810;8.342;2022-12-04T15:36:41;1.00;99.90
5806;DHT22;2929;50.810;8.342;2022-12-04T15:39:19;1.00;99.90
5806;DHT22;2929;50.810;8.342;2022-12-04T15:41:49;1.00;99.90
5806;DHT22;2929;50.810;8.342;2022-12-04T15:44:29;1.00;99.90
5806;DHT22;2929;50.810;8.342;2022-12-04T15:46:59;1.00;99.90
5806;DHT22;2929;50.810;8.342;2022-12-04T15:49:29;1.00;99.90
5806;DHT22;2929;50.810;8.342;2022-12-04T15:52:05;1.00;99.90
5806;DHT22;2929;50.810;8.342;2022-12-04T15:54:33;1.00;99.90
5806;DHT22;2929;50.810;8.342;2022-12-04T15:57:03;1.00;99.90
5806;DHT22;2929;50.810;8.342;2022-12-04T15:59:32;1.00;99.90
5806;DHT22;2929;50.810;8.342;2022-12-04T16:02:05;1.00;99.90
5806;DHT22;2929;50.810;8.342;2022-12-04T16:04:34;1.00;99.90
5806;DHT22;2929;50.810;8.342;2022-12-04T16:07:02;1.00;99.90
5806;DHT22;2929;50.810;8.342;2022-12-04T16:09:29;1.00;99.90
5806;DHT22;2929;50.810;8.342;2022-12-04T16:11:58;1.00;99.90
5806;DHT22;2929;50.810;8.342;2022-12-04T16:14:25;1.00;99.90
5806;DHT22;2929;50.810;8.342;2022-12-04T16:16:54;1.00;99.90
5806;DHT22;2929;50.810;8.342;2022-12-04T16:19:27;1.00;99.90
5806;DHT22;2929;50.810;8.342;2022-12-04T16:22:00;1.00;99.90
5806;DHT22;2929;50.810;8.342;2022-12-04T16:24:28;1.00;99.90
5806;DHT22;2929;50.810;8.342;2022-12-04T16:26:56;1.00;99.90
5806;DHT22;2929;50.810;8.342;2022-12-04T16:29:24;1.00;99.90
5806;DHT22;2929;50.810;8.342;2022-12-04T16:31:52;1.10;99.90
5806;DHT22;2929;50.810;8.342;2022-12-04T16:34:19;1.10;99.90
5806;DHT22;2929;50.810;8.342;2022-12-04T16:36:46;1.10;99.90
5806;DHT22;2929;50.810;8.342;2022-12-04T16:39:14;1.00;99.90
5806;DHT22;2929;50.810;8.342;2022-12-04T16:41:41;1.00;99.90
5806;DHT22;2929;50.810;8.342;2022-12-04T16:44:13;1.00;99.90